createdAt,value
2023-03-29T00:02:10.609Z,23.10
2023-03-29T00:05:05.830Z,23.10
2023-03-29T00:08:02.968Z,23.10
2023-03-29T00:11:00.490Z,23.10
2023-03-29T00:13:54.892Z,23.00
2023-03-29T00:16:49.430Z,23.00
2023-03-29T00:19:46.511Z,23.00
2023-03-29T00:22:45.260Z,22.80
2023-03-29T00:25:39.501Z,22.70
2023-03-29T00:28:33.656Z,22.70
2023-03-29T00:31:28.601Z,22.60
2023-03-29T00:34:23.996Z,22.50
2023-03-29T00:37:20.037Z,22.60
2023-03-29T00:40:14.776Z,22.60
2023-03-29T00:43:13.360Z,22.60
2023-03-29T00:46:07.563Z,22.50
2023-03-29T00:49:10.356Z,22.50
2023-03-29T00:52:04.785Z,22.60
2023-03-29T00:55:03.155Z,22.70
2023-03-29T00:57:59.538Z,22.70
2023-03-29T01:01:03.477Z,22.70
2023-03-29T01:04:04.845Z,22.80
2023-03-29T01:07:19.060Z,23.00
2023-03-29T01:10:38.142Z,23.20
2023-03-29T01:14:06.728Z,23.30
2023-03-29T01:17:00.693Z,23.50
2023-03-29T01:20:00.336Z,23.70
2023-03-29T01:23:39.129Z,23.80
2023-03-29T01:26:53.297Z,23.60
2023-03-29T01:29:59.863Z,23.40
2023-03-29T01:33:01.914Z,23.10
2023-03-29T01:36:22.033Z,23.00
2023-03-29T01:39:16.527Z,22.90
2023-03-29T01:42:43.989Z,22.90
2023-03-29T01:45:48.003Z,22.90
2023-03-29T01:48:52.843Z,23.10
2023-03-29T01:52:04.959Z,23.20
2023-03-29T01:55:09.404Z,23.10
2023-03-29T01:58:06.032Z,23.00
2023-03-29T02:01:01.655Z,23.00
2023-03-29T02:04:00.411Z,23.00
2023-03-29T02:06:57.607Z,23.20
2023-03-29T02:09:53.740Z,23.30
2023-03-29T02:12:48.217Z,23.40
2023-03-29T02:15:42.887Z,23.50
2023-03-29T02:18:37.732Z,23.50
2023-03-29T02:21:52.968Z,23.50
2023-03-29T02:24:48.466Z,23.60
2023-03-29T02:27:42.936Z,23.60
2023-03-29T02:31:23.404Z,23.70
2023-03-29T02:34:24.188Z,23.70
2023-03-29T02:37:21.652Z,23.80
2023-03-29T02:40:17.802Z,23.80
2023-03-29T02:43:13.305Z,23.80
2023-03-29T02:46:11.374Z,23.70
2023-03-29T02:49:06.476Z,23.80
2023-03-29T02:52:08.593Z,23.90
2023-03-29T02:55:04.419Z,23.90
2023-03-29T02:57:59.223Z,24.00
2023-03-29T03:00:53.713Z,24.00
2023-03-29T03:03:49.111Z,24.00
2023-03-29T03:06:43.459Z,23.90
2023-03-29T03:09:37.562Z,23.80
2023-03-29T03:12:31.832Z,23.70
2023-03-29T03:15:27.588Z,23.70
2023-03-29T03:18:21.958Z,23.80
2023-03-29T03:21:16.053Z,23.90
2023-03-29T03:24:10.274Z,23.90
2023-03-29T03:27:04.740Z,23.70
2023-03-29T03:29:59.038Z,23.60
2023-03-29T03:32:53.183Z,23.50
2023-03-29T03:35:47.650Z,23.60
2023-03-29T03:38:42.421Z,23.70
2023-03-29T03:41:37.037Z,23.70
2023-03-29T03:44:31.217Z,23.80
2023-03-29T03:47:25.912Z,23.80
2023-03-29T03:50:20.452Z,23.90
2023-03-29T03:53:14.638Z,24.00
2023-03-29T03:56:12.346Z,24.10
2023-03-29T03:59:06.940Z,24.10
2023-03-29T04:02:01.499Z,23.90
2023-03-29T04:04:56.041Z,23.80
2023-03-29T04:07:50.159Z,23.90
2023-03-29T04:10:45.027Z,23.80
2023-03-29T04:13:39.175Z,23.70
2023-03-29T04:16:33.315Z,23.70
2023-03-29T04:19:27.619Z,23.80
2023-03-29T04:22:22.260Z,23.90
2023-03-29T04:25:16.733Z,23.70
2023-03-29T04:28:13.218Z,23.60
2023-03-29T04:31:12.356Z,23.50
2023-03-29T04:34:06.533Z,23.50
2023-03-29T04:37:00.667Z,23.50
2023-03-29T04:39:55.805Z,23.50
2023-03-29T04:42:50.268Z,23.60
2023-03-29T04:45:44.434Z,23.50
2023-03-29T04:48:38.713Z,23.50
2023-03-29T04:51:32.975Z,23.50
2023-03-29T04:54:27.538Z,23.50
2023-03-29T04:57:21.820Z,23.60
2023-03-29T05:00:16.722Z,23.60
2023-03-29T05:03:14.729Z,23.50
2023-03-29T05:06:11.015Z,23.50
2023-03-29T05:09:06.145Z,23.50
2023-03-29T05:12:00.261Z,23.30
2023-03-29T05:14:54.682Z,23.40
2023-03-29T05:17:50.105Z,23.50
2023-03-29T05:20:44.261Z,23.40
2023-03-29T05:23:38.676Z,23.40
2023-03-29T05:26:33.095Z,23.30
2023-03-29T05:29:27.829Z,23.20
2023-03-29T05:32:22.014Z,23.20
2023-03-29T05:35:16.614Z,23.20
2023-03-29T05:38:10.738Z,23.20
2023-03-29T05:41:05.037Z,23.20
2023-03-29T05:43:59.200Z,23.30
2023-03-29T05:46:53.464Z,23.40
2023-03-29T05:49:48.003Z,23.40
2023-03-29T05:52:42.354Z,23.40
2023-03-29T05:55:36.532Z,23.50
2023-03-29T05:58:32.046Z,23.60
2023-03-29T06:01:27.279Z,23.70
2023-03-29T06:04:21.974Z,23.70
2023-03-29T06:07:16.262Z,23.60
2023-03-29T06:10:13.480Z,23.70
2023-03-29T06:13:08.234Z,23.80
2023-03-29T06:16:02.870Z,23.90
2023-03-29T06:18:57.387Z,23.90
2023-03-29T06:21:54.102Z,23.90
2023-03-29T06:24:48.376Z,23.80
2023-03-29T06:27:42.888Z,23.80
2023-03-29T06:30:37.326Z,23.80
2023-03-29T06:33:33.477Z,23.80
2023-03-29T06:36:27.755Z,23.70
2023-03-29T06:39:21.886Z,23.80
2023-03-29T06:42:21.230Z,23.90
2023-03-29T06:45:16.211Z,23.70
2023-03-29T06:48:11.024Z,23.70
2023-03-29T06:51:05.297Z,23.60
2023-03-29T06:53:59.464Z,23.50
2023-03-29T06:56:53.758Z,23.50
2023-03-29T06:59:48.933Z,23.50
2023-03-29T07:02:43.509Z,23.50
2023-03-29T07:05:41.901Z,23.40
2023-03-29T07:08:36.423Z,23.40
2023-03-29T07:11:30.690Z,23.30
2023-03-29T07:14:28.928Z,23.30
2023-03-29T07:17:24.016Z,23.30
2023-03-29T07:20:18.614Z,23.30
2023-03-29T07:23:13.440Z,23.20
2023-03-29T07:26:12.282Z,23.20
2023-03-29T07:29:06.497Z,23.20
2023-03-29T07:32:01.334Z,23.20
2023-03-29T07:34:55.696Z,23.20
2023-03-29T07:37:50.006Z,23.20
2023-03-29T07:40:44.190Z,23.20
2023-03-29T07:43:38.421Z,23.20
2023-03-29T07:46:32.773Z,23.20
2023-03-29T07:49:27.151Z,23.30
2023-03-29T07:52:21.380Z,23.30
2023-03-29T07:55:16.433Z,23.10
2023-03-29T07:58:10.593Z,22.90
2023-03-29T08:01:05.379Z,22.90
2023-03-29T08:03:59.993Z,22.90
2023-03-29T08:06:54.218Z,22.80
2023-03-29T08:09:48.931Z,22.70
2023-03-29T08:12:43.993Z,22.70
2023-03-29T08:15:40.756Z,22.70
2023-03-29T08:18:35.149Z,22.70
2023-03-29T08:21:29.288Z,22.60
2023-03-29T08:24:23.406Z,22.60
2023-03-29T08:27:17.547Z,22.50
2023-03-29T08:30:12.237Z,22.50
2023-03-29T08:33:06.443Z,22.50
2023-03-29T08:36:00.744Z,22.50
2023-03-29T08:38:54.991Z,22.40
2023-03-29T08:42:01.999Z,22.40
2023-03-29T08:45:10.607Z,22.30
2023-03-29T08:48:24.900Z,22.20
2023-03-29T08:51:27.608Z,22.10
2023-03-29T08:54:38.232Z,22.10
2023-03-29T08:57:42.848Z,22.10
2023-03-29T09:00:45.753Z,22.10
2023-03-29T09:03:59.893Z,22.10
2023-03-29T09:06:55.239Z,22.10
2023-03-29T09:09:49.544Z,22.10
2023-03-29T09:12:58.940Z,22.00
2023-03-29T09:16:08.027Z,21.90
2023-03-29T09:19:32.911Z,21.90
2023-03-29T09:22:52.260Z,21.80
2023-03-29T09:26:09.844Z,21.80
2023-03-29T09:29:23.580Z,21.70
2023-03-29T09:32:27.662Z,21.70
2023-03-29T09:35:26.298Z,21.60
2023-03-29T09:38:21.892Z,21.60
2023-03-29T09:41:34.264Z,21.60
2023-03-29T09:44:38.737Z,21.50
2023-03-29T09:47:48.051Z,21.40
2023-03-29T09:50:52.513Z,21.40
2023-03-29T09:53:48.152Z,21.30
2023-03-29T09:56:42.697Z,21.30
2023-03-29T09:59:38.192Z,21.20
2023-03-29T10:02:33.707Z,21.20
2023-03-29T10:05:38.967Z,21.20
2023-03-29T10:08:48.144Z,21.10
2023-03-29T10:11:42.875Z,21.10
2023-03-29T10:14:48.253Z,21.10
2023-03-29T10:17:44.343Z,21.00
2023-03-29T10:20:42.216Z,21.00
2023-03-29T10:23:38.798Z,20.90
2023-03-29T10:26:37.296Z,20.90
2023-03-29T10:29:40.526Z,20.90
2023-03-29T10:32:39.696Z,20.80
2023-03-29T10:35:45.541Z,20.90
2023-03-29T10:38:40.542Z,20.80
2023-03-29T10:41:36.364Z,20.70
2023-03-29T10:44:37.814Z,20.70
2023-03-29T10:47:35.491Z,20.60
2023-03-29T10:50:36.506Z,20.50
2023-03-29T10:53:34.175Z,20.60
2023-03-29T10:56:58.535Z,20.50
2023-03-29T10:59:58.656Z,20.50
2023-03-29T11:03:26.930Z,20.40
2023-03-29T11:06:34.313Z,20.40
2023-03-29T11:09:47.410Z,20.30
2023-03-29T11:12:58.241Z,20.30
2023-03-29T11:16:17.777Z,20.20
2023-03-29T11:19:12.278Z,20.20
2023-03-29T11:22:09.884Z,20.10
2023-03-29T11:25:43.303Z,20.00
2023-03-29T11:28:45.462Z,20.00
2023-03-29T11:31:47.797Z,19.90
2023-03-29T11:35:14.092Z,19.90
2023-03-29T11:38:15.303Z,19.90
2023-03-29T11:41:16.068Z,19.90
2023-03-29T11:44:31.502Z,19.80
2023-03-29T11:47:31.887Z,19.80
2023-03-29T11:50:37.578Z,19.80
2023-03-29T11:53:38.953Z,19.80
2023-03-29T11:56:57.115Z,19.70
2023-03-29T12:00:16.835Z,19.70
2023-03-29T12:03:38.206Z,19.60
2023-03-29T12:06:38.946Z,19.60
2023-03-29T12:09:51.227Z,19.60
2023-03-29T12:12:56.869Z,19.50
2023-03-29T12:16:08.450Z,19.50
2023-03-29T12:19:25.706Z,19.40
2023-03-29T12:22:20.252Z,19.40
2023-03-29T12:25:20.208Z,19.30
2023-03-29T12:28:37.187Z,19.30
2023-03-29T12:32:13.909Z,19.20
2023-03-29T12:35:17.358Z,19.10
2023-03-29T12:38:30.883Z,19.10
2023-03-29T12:41:29.524Z,19.00
2023-03-29T12:44:25.411Z,18.90
2023-03-29T12:47:26.484Z,18.90
2023-03-29T12:50:34.607Z,18.90
2023-03-29T12:54:08.653Z,18.90
2023-03-29T12:57:45.725Z,18.90
2023-03-29T13:00:45.593Z,18.90
2023-03-29T13:03:50.306Z,18.90
2023-03-29T13:07:04.704Z,18.80
2023-03-29T13:10:00.039Z,18.70
2023-03-29T13:12:55.805Z,18.70
2023-03-29T13:15:50.091Z,18.70
2023-03-29T13:18:52.978Z,18.70
2023-03-29T13:22:06.972Z,18.70
2023-03-29T13:25:26.073Z,18.70
2023-03-29T13:28:54.617Z,18.70
2023-03-29T13:32:28.831Z,18.60
2023-03-29T13:35:38.271Z,18.60
2023-03-29T13:38:33.330Z,18.60
2023-03-29T13:41:45.624Z,18.50
2023-03-29T13:44:50.005Z,18.50
2023-03-29T13:47:58.782Z,18.50
2023-03-29T13:51:15.681Z,18.50
2023-03-29T13:54:28.812Z,18.40
2023-03-29T13:57:52.168Z,18.40
2023-03-29T14:01:01.056Z,18.40
2023-03-29T14:03:56.971Z,18.40
2023-03-29T14:06:55.628Z,18.40
2023-03-29T14:09:52.339Z,18.30
2023-03-29T14:12:48.108Z,18.30
2023-03-29T14:15:51.707Z,18.30
2023-03-29T14:18:52.326Z,18.20
2023-03-29T14:21:47.938Z,18.20
2023-03-29T14:24:50.742Z,18.10
2023-03-29T14:27:45.449Z,18.10
2023-03-29T14:30:39.566Z,18.10
2023-03-29T14:33:35.865Z,18.00
2023-03-29T14:36:32.182Z,17.90
2023-03-29T14:39:26.813Z,17.90
2023-03-29T14:42:25.757Z,17.90
2023-03-29T14:45:24.653Z,17.80
2023-03-29T14:48:19.398Z,17.80
2023-03-29T14:51:13.761Z,17.70
2023-03-29T14:54:08.455Z,17.70
2023-03-29T14:57:10.238Z,17.70
2023-03-29T15:00:28.073Z,17.60
2023-03-29T15:03:28.349Z,17.70
2023-03-29T15:06:23.050Z,17.60
2023-03-29T15:09:28.648Z,17.60
2023-03-29T15:12:23.364Z,17.60
2023-03-29T15:15:18.222Z,17.50
2023-03-29T15:18:17.091Z,17.40
2023-03-29T15:21:14.681Z,17.40
2023-03-29T15:24:20.326Z,17.40
2023-03-29T15:27:22.258Z,17.40
2023-03-29T15:30:19.149Z,17.40
2023-03-29T15:33:17.515Z,17.40
2023-03-29T15:36:14.613Z,17.40
2023-03-29T15:39:12.140Z,17.40
2023-03-29T15:42:08.154Z,17.30
2023-03-29T15:45:07.692Z,17.30
2023-03-29T15:48:06.029Z,17.30
2023-03-29T15:51:02.136Z,17.20
2023-03-29T15:53:58.333Z,17.20
2023-03-29T15:56:59.023Z,17.20
2023-03-29T15:59:53.264Z,17.20
2023-03-29T16:02:47.889Z,17.20
2023-03-29T16:05:42.879Z,17.20
2023-03-29T16:08:37.311Z,17.10
2023-03-29T16:11:31.436Z,17.20
2023-03-29T16:14:28.378Z,17.10
2023-03-29T16:17:22.714Z,17.10
2023-03-29T16:20:21.303Z,17.10
2023-03-29T16:23:15.526Z,17.10
2023-03-29T16:26:10.512Z,17.10
2023-03-29T16:29:04.647Z,17.00
2023-03-29T16:31:59.395Z,17.00
2023-03-29T16:34:53.633Z,16.90
2023-03-29T16:37:48.100Z,16.90
2023-03-29T16:40:43.268Z,16.90
2023-03-29T16:43:39.570Z,16.90
2023-03-29T16:46:33.828Z,16.90
2023-03-29T16:49:28.113Z,16.80
2023-03-29T16:52:22.510Z,16.80
2023-03-29T16:55:20.096Z,16.70
2023-03-29T16:58:14.566Z,16.70
2023-03-29T17:01:14.445Z,16.70
2023-03-29T17:04:08.912Z,16.70
2023-03-29T17:07:03.265Z,16.60
2023-03-29T17:09:58.008Z,16.60
2023-03-29T17:12:52.433Z,16.60
2023-03-29T17:15:46.935Z,16.60
2023-03-29T17:18:41.077Z,16.60
2023-03-29T17:21:35.292Z,16.50
2023-03-29T17:24:29.489Z,16.50
2023-03-29T17:27:23.620Z,16.50
2023-03-29T17:30:18.247Z,16.50
2023-03-29T17:33:12.435Z,16.40
2023-03-29T17:36:08.454Z,16.40
2023-03-29T17:39:03.174Z,16.40
2023-03-29T17:41:57.354Z,16.40
2023-03-29T17:44:51.938Z,16.30
2023-03-29T17:47:46.671Z,16.30
2023-03-29T17:50:40.856Z,16.30
2023-03-29T17:53:35.307Z,16.40
2023-03-29T17:56:29.514Z,16.40
2023-03-29T17:59:23.664Z,16.40
2023-03-29T18:02:25.601Z,16.40
2023-03-29T18:05:20.120Z,16.40
2023-03-29T18:08:16.084Z,16.40
2023-03-29T18:11:25.972Z,16.40
2023-03-29T18:14:20.169Z,16.50
2023-03-29T18:17:14.343Z,16.50
2023-03-29T18:20:12.435Z,16.50
2023-03-29T18:23:06.793Z,16.50
2023-03-29T18:26:04.079Z,16.50
2023-03-29T18:28:58.601Z,16.50
2023-03-29T18:31:53.068Z,16.50
2023-03-29T18:34:47.524Z,16.50
2023-03-29T18:37:41.911Z,16.50
2023-03-29T18:40:36.380Z,16.50
2023-03-29T18:43:33.948Z,16.50
2023-03-29T18:46:31.706Z,16.40
2023-03-29T18:49:26.995Z,16.40
2023-03-29T18:52:22.449Z,16.40
2023-03-29T18:55:17.044Z,16.40
2023-03-29T18:58:16.480Z,16.30
2023-03-29T19:01:11.975Z,16.30
2023-03-29T19:04:06.914Z,16.30
2023-03-29T19:07:02.552Z,16.20
2023-03-29T19:09:57.063Z,16.20
2023-03-29T19:12:51.226Z,16.20
2023-03-29T19:15:46.232Z,16.30
2023-03-29T19:18:40.471Z,16.30
2023-03-29T19:21:35.058Z,16.30
2023-03-29T19:24:29.423Z,16.30
2023-03-29T19:27:23.731Z,16.30
2023-03-29T19:30:23.844Z,16.40
2023-03-29T19:33:18.411Z,16.40
2023-03-29T19:36:13.185Z,16.40
2023-03-29T19:39:08.398Z,16.40
2023-03-29T19:42:02.585Z,16.40
2023-03-29T19:44:56.886Z,16.40
2023-03-29T19:47:56.620Z,16.40
2023-03-29T19:50:50.957Z,16.50
2023-03-29T19:53:45.145Z,16.50
2023-03-29T19:56:39.423Z,16.50
2023-03-29T19:59:33.732Z,16.50
2023-03-29T20:02:28.715Z,16.40
2023-03-29T20:05:22.990Z,16.40
2023-03-29T20:08:17.291Z,16.50
2023-03-29T20:11:12.782Z,16.50
2023-03-29T20:14:07.438Z,16.50
2023-03-29T20:17:01.631Z,16.50
2023-03-29T20:19:56.775Z,16.60
2023-03-29T20:22:51.363Z,16.60
2023-03-29T20:25:45.649Z,16.70
2023-03-29T20:28:39.860Z,16.70
2023-03-29T20:31:34.259Z,16.60
2023-03-29T20:34:28.491Z,16.60
2023-03-29T20:37:24.199Z,16.60
2023-03-29T20:40:18.533Z,16.60
2023-03-29T20:43:14.354Z,16.60
2023-03-29T20:46:24.086Z,16.70
2023-03-29T20:49:18.882Z,16.70
2023-03-29T20:52:18.582Z,16.80
2023-03-29T20:55:23.401Z,16.80
2023-03-29T20:58:17.650Z,16.90
2023-03-29T21:01:15.503Z,16.90
2023-03-29T21:04:10.394Z,16.90
2023-03-29T21:07:06.701Z,16.90
2023-03-29T21:10:02.234Z,16.90
2023-03-29T21:13:01.416Z,16.90
2023-03-29T21:15:55.664Z,17.00
2023-03-29T21:18:49.953Z,17.00
2023-03-29T21:21:46.055Z,17.00
2023-03-29T21:24:40.283Z,17.00
2023-03-29T21:27:34.498Z,17.00
2023-03-29T21:30:31.354Z,17.00
2023-03-29T21:33:26.516Z,17.00
2023-03-29T21:36:21.344Z,17.10
2023-03-29T21:39:15.816Z,17.10
2023-03-29T21:42:11.310Z,17.10
2023-03-29T21:45:05.897Z,17.10
2023-03-29T21:48:00.245Z,17.10
2023-03-29T21:50:54.530Z,17.10
2023-03-29T21:53:49.384Z,17.20
2023-03-29T21:56:43.645Z,17.20
2023-03-29T21:59:38.075Z,17.20
2023-03-29T22:02:32.856Z,17.20
2023-03-29T22:05:29.962Z,17.20
2023-03-29T22:08:25.571Z,17.20
2023-03-29T22:11:20.557Z,17.30
2023-03-29T22:14:15.233Z,17.30
2023-03-29T22:17:10.496Z,17.30
2023-03-29T22:20:12.838Z,17.40
2023-03-29T22:23:07.280Z,17.40
2023-03-29T22:26:08.227Z,17.50
2023-03-29T22:29:03.311Z,17.60
2023-03-29T22:31:57.609Z,17.60
2023-03-29T22:34:52.804Z,17.70
2023-03-29T22:37:47.165Z,17.70
2023-03-29T22:40:42.512Z,17.80
2023-03-29T22:43:39.710Z,17.80
2023-03-29T22:46:34.271Z,17.90
2023-03-29T22:49:28.568Z,18.00
2023-03-29T22:52:23.037Z,18.10
2023-03-29T22:55:17.679Z,18.10
2023-03-29T22:58:12.069Z,18.20
2023-03-29T23:01:07.878Z,18.30
2023-03-29T23:04:02.598Z,18.30
2023-03-29T23:06:57.437Z,18.40
2023-03-29T23:09:51.956Z,19.30
2023-03-29T23:12:46.765Z,20.10
2023-03-29T23:15:46.684Z,20.50
2023-03-29T23:18:41.059Z,20.90
2023-03-29T23:21:37.269Z,21.70
2023-03-29T23:24:31.679Z,22.20
2023-03-29T23:27:26.808Z,21.90
2023-03-29T23:30:22.839Z,21.60
2023-03-29T23:33:17.168Z,21.30
2023-03-29T23:36:14.508Z,21.00
2023-03-29T23:39:09.211Z,20.80
2023-03-29T23:42:04.706Z,20.70
2023-03-29T23:44:59.175Z,20.60
2023-03-29T23:47:53.402Z,20.50
2023-03-29T23:50:47.850Z,20.40
2023-03-29T23:53:42.350Z,20.40
2023-03-29T23:56:36.980Z,20.50
2023-03-29T23:59:32.403Z,20.50
